CPX671 Details

Departure: Tallahassee International Airport (KTLH)
Arrival: Miami International Airport (KMIA) at N/A
Route: HEVVN NICKI JUULI SSCOT5
Notes:


Current Weather Information
KTLH 250401Z AUTO 09004KT 10SM SCT120 24/24 A3001 RMK AO2 LTG DSNT NW RAE01 P0000 T02440244 $
KMIA 250353Z 21004KT 10SM FEW030 FEW250 28/25 A2995 RMK AO2 SLP140 T02830250